Time;durP1;ratioP1;P1;durP2;ratioP2;P2;SDS_P1;SDS_P2;PMS_P1;PMS_P2;Temp;Humidity;BMP_temperature;BMP_pressure;BME280_temperature;BME280_humidity;BME280_pressure;Samples;Min_cycle;Max_cycle;Signal;HPM_P1;HPM_P2
2021/08/29 00:02:03;;;;;;;9.50;8.80;;;;;;;;;;5107225;28;24506;-60
2021/08/29 00:04:28;;;;;;;9.80;9.10;;;;;;;;;;5108720;28;24425;-61
2021/08/29 00:06:53;;;;;;;9.80;9.10;;;;;;;;;;5108327;28;24451;-61
2021/08/29 00:09:18;;;;;;;11.63;10.83;;;;;;;;;;5108618;28;24988;-61
2021/08/29 00:11:44;;;;;;;11.00;10.20;;;;;;;;;;5118969;27;24410;-61
2021/08/29 00:14:09;;;;;;;10.90;10.00;;;;;;;;;;5108494;28;24958;-61
2021/08/29 00:16:34;;;;;;;10.30;9.50;;;;;;;;;;5108631;28;24472;-61
2021/08/29 00:18:59;;;;;;;10.43;9.63;;;;;;;;;;5108260;28;24406;-61
2021/08/29 00:21:25;;;;;;;10.60;9.80;;;;;;;;;;5116127;27;24922;-62
2021/08/29 00:23:50;;;;;;;9.23;8.63;;;;;;;;;;5109592;27;24456;-62
2021/08/29 00:26:15;;;;;;;8.90;8.20;;;;;;;;;;5108256;28;25161;-62
2021/08/29 00:28:40;;;;;;;9.00;8.40;;;;;;;;;;5107280;28;24424;-62
2021/08/29 00:31:05;;;;;;;10.10;9.40;;;;;;;;;;5107870;28;24510;-61
2021/08/29 00:33:30;;;;;;;9.85;9.15;;;;;;;;;;5107384;28;24433;-62
2021/08/29 00:35:56;;;;;;;9.50;8.70;;;;;;;;;;5108310;28;24398;-61
2021/08/29 00:38:21;;;;;;;10.10;9.40;;;;;;;;;;5107866;28;24812;-61
2021/08/29 00:40:47;;;;;;;9.90;9.20;;;;;;;;;;5108309;28;24421;-62
2021/08/29 00:43:12;;;;;;;10.07;9.37;;;;;;;;;;5106872;28;24949;-61
2021/08/29 00:45:38;;;;;;;9.10;8.40;;;;;;;;;;5109218;28;24508;-61
2021/08/29 00:48:06;;;;;;;10.57;9.77;;;;;;;;;;5108058;28;24418;-61
2021/08/29 00:50:31;;;;;;;9.50;8.80;;;;;;;;;;5107689;28;25000;-61
2021/08/29 00:52:56;;;;;;;9.10;8.50;;;;;;;;;;5107709;28;25012;-62
2021/08/29 00:55:22;;;;;;;9.13;8.52;;;;;;;;;;5107962;28;24413;-62
2021/08/29 00:57:47;;;;;;;8.70;8.10;;;;;;;;;;5113871;28;24414;-62
2021/08/29 01:00:12;;;;;;;8.80;8.20;;;;;;;;;;5107453;28;24764;-62
2021/08/29 01:02:38;;;;;;;8.60;8.00;;;;;;;;;;5107646;28;24459;-62
2021/08/29 01:05:06;;;;;;;8.77;8.18;;;;;;;;;;5107922;28;24509;-62
2021/08/29 01:07:53;;;;;;;8.80;8.20;;;;;;;;;;5107350;28;24417;-62
2021/08/29 01:10:22;;;;;;;9.20;8.60;;;;;;;;;;5108239;28;24425;-62
2021/08/29 01:12:48;;;;;;;9.20;8.50;;;;;;;;;;5107437;28;24846;-61
2021/08/29 01:15:13;;;;;;;9.60;8.90;;;;;;;;;;5106245;27;24551;-61
2021/08/29 01:17:39;;;;;;;9.18;8.48;;;;;;;;;;5123406;27;24772;-62
2021/08/29 01:20:08;;;;;;;8.90;8.30;;;;;;;;;;5111733;28;25316;-61
2021/08/29 01:22:33;;;;;;;9.50;8.80;;;;;;;;;;5111939;28;24436;-61
2021/08/29 01:24:59;;;;;;;9.47;8.77;;;;;;;;;;5110705;28;24452;-60
2021/08/29 01:27:26;;;;;;;8.20;7.60;;;;;;;;;;5112299;27;25284;-60
2021/08/29 01:29:52;;;;;;;8.82;8.23;;;;;;;;;;5111547;28;24414;-60
2021/08/29 01:32:19;;;;;;;8.60;8.00;;;;;;;;;;5111546;28;24771;-60
2021/08/29 01:34:46;;;;;;;8.18;7.57;;;;;;;;;;5110538;28;24421;-60
2021/08/29 01:37:11;;;;;;;8.88;8.18;;;;;;;;;;5116258;27;24469;-62
2021/08/29 01:39:36;;;;;;;8.80;8.20;;;;;;;;;;5111077;28;24485;-61
2021/08/29 01:42:02;;;;;;;8.10;7.50;;;;;;;;;;5111192;28;24425;-60
2021/08/29 01:44:27;;;;;;;8.40;7.80;;;;;;;;;;5111161;28;24413;-60
2021/08/29 01:46:53;;;;;;;8.80;8.20;;;;;;;;;;5109732;28;25172;-60
2021/08/29 01:49:18;;;;;;;8.80;8.20;;;;;;;;;;5111036;27;24438;-60
2021/08/29 01:51:44;;;;;;;9.47;8.77;;;;;;;;;;5111122;28;24456;-61
2021/08/29 01:54:09;;;;;;;8.90;8.20;;;;;;;;;;5110628;28;24424;-60
2021/08/29 01:57:04;;;;;;;8.60;8.00;;;;;;;;;;5110800;28;24966;-59
2021/08/29 01:59:30;;;;;;;8.23;7.63;;;;;;;;;;5097941;27;24516;-59
2021/08/29 02:01:55;;;;;;;8.07;7.53;;;;;;;;;;5122842;27;24405;-58
2021/08/29 02:04:21;;;;;;;9.18;8.48;;;;;;;;;;5122307;27;24771;-59
2021/08/29 02:06:47;;;;;;;9.70;8.90;;;;;;;;;;5110405;28;24417;-59
2021/08/29 02:09:13;;;;;;;9.50;8.80;;;;;;;;;;5110711;28;24417;-58
2021/08/29 02:11:40;;;;;;;9.48;8.70;;;;;;;;;;5111897;27;24413;-58
2021/08/29 02:14:08;;;;;;;9.55;8.85;;;;;;;;;;5110498;28;24875;-59
2021/08/29 02:16:35;;;;;;;9.10;8.50;;;;;;;;;;5110690;28;24443;-59
2021/08/29 02:19:01;;;;;;;9.23;8.52;;;;;;;;;;5110420;28;24985;-60
2021/08/29 02:21:26;;;;;;;9.07;8.47;;;;;;;;;;5110125;28;24450;-60
2021/08/29 02:23:52;;;;;;;8.73;8.13;;;;;;;;;;5111548;27;24958;-60
2021/08/29 02:26:17;;;;;;;9.43;8.83;;;;;;;;;;5109128;28;24543;-59
2021/08/29 02:28:42;;;;;;;9.13;8.43;;;;;;;;;;5110370;28;25150;-59
2021/08/29 02:31:08;;;;;;;9.67;8.87;;;;;;;;;;5110037;28;24844;-59
2021/08/29 02:33:33;;;;;;;9.13;8.43;;;;;;;;;;5116438;27;24432;-59
2021/08/29 02:36:00;;;;;;;9.37;8.67;;;;;;;;;;5109461;28;24418;-60
2021/08/29 02:38:25;;;;;;;9.40;8.70;;;;;;;;;;5109849;28;24436;-59
2021/08/29 02:40:52;;;;;;;8.53;7.93;;;;;;;;;;5110072;28;24970;-59
2021/08/29 02:43:19;;;;;;;8.75;8.15;;;;;;;;;;5111030;27;24425;-59
2021/08/29 02:45:45;;;;;;;8.90;8.30;;;;;;;;;;5110277;28;24521;-60
2021/08/29 02:48:10;;;;;;;9.47;8.77;;;;;;;;;;5109747;28;24455;-59
2021/08/29 02:50:36;;;;;;;9.70;9.00;;;;;;;;;;5109645;28;24476;-59
2021/08/29 02:53:02;;;;;;;9.90;9.10;;;;;;;;;;5110977;27;24551;-60
2021/08/29 02:55:27;;;;;;;8.65;8.05;;;;;;;;;;5109507;28;24878;-60
2021/08/29 02:58:04;;;;;;;8.60;8.00;;;;;;;;;;5109736;28;24509;-59
2021/08/29 03:00:29;;;;;;;8.57;7.97;;;;;;;;;;5109513;28;24429;-60
2021/08/29 03:02:54;;;;;;;9.50;8.80;;;;;;;;;;5114969;27;24428;-59
2021/08/29 03:05:20;;;;;;;8.63;8.03;;;;;;;;;;5109786;28;24417;-60
2021/08/29 03:07:45;;;;;;;8.47;7.87;;;;;;;;;;5109289;28;24462;-59
2021/08/29 03:10:11;;;;;;;9.00;8.40;;;;;;;;;;5109457;28;24422;-60
2021/08/29 03:12:36;;;;;;;9.20;8.50;;;;;;;;;;5108865;27;24417;-59
2021/08/29 03:15:01;;;;;;;9.80;9.00;;;;;;;;;;5109351;28;24524;-59
2021/08/29 03:17:26;;;;;;;9.10;8.40;;;;;;;;;;5108913;28;24554;-60
2021/08/29 03:19:52;;;;;;;9.20;8.50;;;;;;;;;;5109335;28;24504;-60
2021/08/29 03:22:17;;;;;;;9.60;8.90;;;;;;;;;;5108975;28;24409;-59
2021/08/29 03:24:42;;;;;;;9.90;9.10;;;;;;;;;;5110168;27;24780;-59
2021/08/29 03:27:08;;;;;;;10.20;9.30;;;;;;;;;;5108495;28;24429;-59
2021/08/29 03:29:33;;;;;;;9.40;8.70;;;;;;;;;;5109294;28;24418;-59
2021/08/29 03:31:59;;;;;;;9.90;9.20;;;;;;;;;;5108230;28;25072;-59
2021/08/29 03:34:24;;;;;;;8.70;8.10;;;;;;;;;;5116653;27;24938;-59
2021/08/29 03:36:49;;;;;;;8.80;8.20;;;;;;;;;;5119425;27;24416;-58
2021/08/29 03:39:15;;;;;;;9.00;8.30;;;;;;;;;;5109009;28;24559;-58
2021/08/29 03:41:41;;;;;;;8.50;7.90;;;;;;;;;;5108980;28;24496;-59
2021/08/29 03:44:15;;;;;;;8.77;8.18;;;;;;;;;;5109598;27;24424;-59
2021/08/29 03:46:41;;;;;;;8.80;8.20;;;;;;;;;;5108481;28;24502;-59
2021/08/29 03:49:06;;;;;;;8.30;7.70;;;;;;;;;;5107917;28;24629;-60
2021/08/29 03:51:35;;;;;;;8.80;8.10;;;;;;;;;;5108409;28;24432;-60
2021/08/29 03:54:01;;;;;;;8.40;7.80;;;;;;;;;;5108237;28;24451;-60
2021/08/29 03:56:27;;;;;;;8.70;8.10;;;;;;;;;;5117703;27;24446;-60
2021/08/29 03:58:52;;;;;;;8.30;7.70;;;;;;;;;;5108165;28;25236;-60
2021/08/29 04:01:17;;;;;;;8.47;7.87;;;;;;;;;;5107620;28;24966;-60
2021/08/29 04:03:42;;;;;;;8.50;7.90;;;;;;;;;;5108318;28;24416;-60
2021/08/29 04:06:08;;;;;;;8.90;8.20;;;;;;;;;;5107341;28;24569;-60
2021/08/29 04:08:38;;;;;;;9.50;8.80;;;;;;;;;;5108096;28;24438;-60
2021/08/29 04:11:03;;;;;;;9.18;8.57;;;;;;;;;;5108042;28;24482;-60
2021/08/29 04:13:29;;;;;;;10.10;9.30;;;;;;;;;;5108135;28;24433;-59
2021/08/29 04:15:55;;;;;;;9.83;9.13;;;;;;;;;;5111583;27;24981;-60
2021/08/29 04:18:21;;;;;;;9.90;9.20;;;;;;;;;;5114889;27;24466;-60
2021/08/29 04:20:46;;;;;;;9.55;8.70;;;;;;;;;;5107957;28;24410;-60
2021/08/29 04:23:12;;;;;;;8.27;7.67;;;;;;;;;;5107611;28;24412;-59
2021/08/29 04:25:37;;;;;;;9.07;8.40;;;;;;;;;;5108158;28;24414;-59
2021/08/29 04:28:03;;;;;;;8.50;7.90;;;;;;;;;;5108906;27;24417;-60
2021/08/29 04:30:28;;;;;;;9.40;8.60;;;;;;;;;;5108086;28;24466;-59
2021/08/29 04:32:53;;;;;;;9.07;8.40;;;;;;;;;;5107095;28;24440;-59
2021/08/29 04:35:18;;;;;;;10.00;9.30;;;;;;;;;;5108063;28;24429;-60
2021/08/29 04:37:44;;;;;;;9.77;9.00;;;;;;;;;;5108973;28;24505;-59
2021/08/29 04:40:09;;;;;;;8.88;8.27;;;;;;;;;;5107339;28;24776;-60
2021/08/29 04:42:34;;;;;;;8.40;7.80;;;;;;;;;;5107617;28;24991;-60
2021/08/29 04:44:59;;;;;;;8.77;8.18;;;;;;;;;;5107009;28;24412;-60
2021/08/29 04:47:24;;;;;;;7.47;6.97;;;;;;;;;;5107856;28;24861;-60
2021/08/29 04:49:49;;;;;;;8.60;8.00;;;;;;;;;;5109628;28;24499;-60
2021/08/29 04:52:14;;;;;;;9.00;8.30;;;;;;;;;;5112152;28;24420;-59
2021/08/29 04:54:40;;;;;;;8.27;7.68;;;;;;;;;;5111887;28;24970;-59
2021/08/29 04:57:05;;;;;;;9.40;8.60;;;;;;;;;;5110995;28;24409;-60
2021/08/29 04:59:30;;;;;;;10.00;9.20;;;;;;;;;;5119387;27;24420;-60
2021/08/29 05:01:55;;;;;;;9.10;8.40;;;;;;;;;;5111685;28;24424;-60
2021/08/29 05:04:20;;;;;;;10.70;9.90;;;;;;;;;;5111742;28;24585;-57
2021/08/29 05:06:45;;;;;;;9.70;8.90;;;;;;;;;;5111936;28;24412;-58
2021/08/29 05:09:11;;;;;;;9.50;8.80;;;;;;;;;;5112165;27;24410;-59
2021/08/29 05:11:36;;;;;;;8.53;7.93;;;;;;;;;;5117802;27;24459;-59
2021/08/29 05:14:01;;;;;;;10.33;9.53;;;;;;;;;;5116136;27;24429;-58
2021/08/29 05:16:26;;;;;;;9.40;8.70;;;;;;;;;;5111255;28;24505;-59
2021/08/29 05:18:51;;;;;;;9.13;8.43;;;;;;;;;;5114129;27;24419;-59
2021/08/29 05:21:16;;;;;;;9.87;9.10;;;;;;;;;;5111875;28;24510;-60
2021/08/29 05:23:41;;;;;;;10.90;10.00;;;;;;;;;;5111296;28;25012;-59
2021/08/29 05:26:07;;;;;;;10.23;9.43;;;;;;;;;;5111224;28;24497;-59
2021/08/29 05:28:32;;;;;;;8.80;8.10;;;;;;;;;;5111595;28;24417;-60
2021/08/29 05:30:57;;;;;;;9.90;9.10;;;;;;;;;;5111493;27;24840;-59
2021/08/29 05:33:22;;;;;;;9.27;8.48;;;;;;;;;;5110122;28;25044;-59
2021/08/29 05:35:47;;;;;;;10.00;9.20;;;;;;;;;;5111502;27;24450;-59
2021/08/29 05:38:12;;;;;;;9.00;8.20;;;;;;;;;;5110662;28;24421;-59
2021/08/29 05:40:38;;;;;;;9.15;8.35;;;;;;;;;;5109760;27;24409;-60
2021/08/29 05:43:03;;;;;;;9.20;8.40;;;;;;;;;;5110767;28;24413;-59
2021/08/29 05:45:28;;;;;;;10.55;9.75;;;;;;;;;;5110592;28;24482;-59
2021/08/29 05:47:53;;;;;;;10.45;9.55;;;;;;;;;;5110360;28;25176;-60
2021/08/29 05:50:18;;;;;;;9.38;8.57;;;;;;;;;;5109051;28;24437;-60
2021/08/29 05:52:43;;;;;;;9.15;8.35;;;;;;;;;;5110342;28;24446;-60
2021/08/29 05:55:09;;;;;;;8.85;8.05;;;;;;;;;;5110433;28;25013;-60
2021/08/29 05:57:34;;;;;;;9.80;9.00;;;;;;;;;;5109920;28;24409;-61
2021/08/29 05:59:59;;;;;;;11.50;10.50;;;;;;;;;;5101548;28;24993;-59
2021/08/29 06:02:24;;;;;;;11.02;10.02;;;;;;;;;;5109860;28;24998;-59
2021/08/29 06:04:49;;;;;;;9.50;8.70;;;;;;;;;;5108601;28;24992;-59
2021/08/29 06:07:14;;;;;;;9.33;8.53;;;;;;;;;;5109364;28;24553;-59
2021/08/29 06:09:39;;;;;;;9.80;9.00;;;;;;;;;;5109202;28;24456;-59
2021/08/29 06:12:05;;;;;;;9.73;8.93;;;;;;;;;;5109719;28;24771;-60
2021/08/29 06:14:30;;;;;;;10.05;9.25;;;;;;;;;;5110068;28;24421;-60
2021/08/29 06:16:55;;;;;;;10.20;9.30;;;;;;;;;;5107080;28;25179;-60
2021/08/29 06:19:20;;;;;;;9.07;8.27;;;;;;;;;;5111843;27;24413;-60
2021/08/29 06:21:45;;;;;;;8.88;8.15;;;;;;;;;;5111254;27;24410;-61
2021/08/29 06:24:11;;;;;;;9.97;9.17;;;;;;;;;;5109323;28;24432;-60
2021/08/29 06:26:36;;;;;;;8.80;8.10;;;;;;;;;;5109319;28;24806;-60
2021/08/29 06:29:01;;;;;;;8.95;8.23;;;;;;;;;;5109898;28;24966;-61
2021/08/29 06:31:26;;;;;;;8.60;7.90;;;;;;;;;;5113250;27;24775;-60
2021/08/29 06:33:51;;;;;;;8.75;8.05;;;;;;;;;;5109297;28;24517;-60
2021/08/29 06:36:17;;;;;;;8.40;7.70;;;;;;;;;;5110340;28;24453;-60
2021/08/29 06:38:42;;;;;;;9.43;8.63;;;;;;;;;;5109604;28;24421;-61
2021/08/29 06:41:07;;;;;;;9.73;8.83;;;;;;;;;;5108476;27;24505;-60
2021/08/29 06:43:32;;;;;;;8.17;7.47;;;;;;;;;;5115929;27;24474;-60
2021/08/29 06:45:57;;;;;;;8.60;7.90;;;;;;;;;;5114484;27;24465;-60
2021/08/29 06:48:22;;;;;;;8.80;8.00;;;;;;;;;;5109163;28;24498;-60
2021/08/29 06:50:48;;;;;;;9.40;8.60;;;;;;;;;;5103472;27;24445;-61
2021/08/29 06:53:13;;;;;;;8.30;7.60;;;;;;;;;;5109980;28;24842;-60
2021/08/29 06:55:38;;;;;;;11.40;10.40;;;;;;;;;;5109401;28;24477;-60
2021/08/29 06:58:03;;;;;;;10.17;9.27;;;;;;;;;;5109602;28;24460;-61
2021/08/29 07:00:28;;;;;;;11.50;10.40;;;;;;;;;;5108924;28;24467;-61
2021/08/29 07:02:53;;;;;;;11.00;10.10;;;;;;;;;;5108899;27;24424;-61
2021/08/29 07:05:19;;;;;;;8.73;7.93;;;;;;;;;;5108868;28;24447;-60
2021/08/29 07:07:44;;;;;;;9.30;8.50;;;;;;;;;;5109889;28;24877;-60
2021/08/29 07:10:09;;;;;;;9.48;8.57;;;;;;;;;;5102248;28;24405;-61
2021/08/29 07:12:34;;;;;;;9.20;8.50;;;;;;;;;;5109431;28;24420;-60
2021/08/29 07:14:59;;;;;;;10.70;9.70;;;;;;;;;;5106715;27;24604;-61
2021/08/29 07:17:24;;;;;;;9.57;8.77;;;;;;;;;;5109090;27;24429;-61
2021/08/29 07:19:50;;;;;;;9.07;8.30;;;;;;;;;;5107375;28;24763;-60
2021/08/29 07:22:15;;;;;;;10.30;9.35;;;;;;;;;;5112785;27;24413;-60
2021/08/29 07:24:40;;;;;;;9.33;8.53;;;;;;;;;;5106394;28;24405;-60
2021/08/29 07:27:05;;;;;;;8.63;7.93;;;;;;;;;;5108532;28;24406;-60
2021/08/29 07:29:30;;;;;;;9.00;8.20;;;;;;;;;;5109163;28;25021;-61
2021/08/29 07:31:56;;;;;;;9.90;9.00;;;;;;;;;;5109245;28;24452;-61
2021/08/29 07:34:21;;;;;;;10.10;9.10;;;;;;;;;;5109485;27;24433;-61
2021/08/29 07:36:46;;;;;;;9.17;8.37;;;;;;;;;;5107956;28;24467;-61
2021/08/29 07:39:11;;;;;;;9.88;9.07;;;;;;;;;;5109007;28;24477;-61
2021/08/29 07:41:36;;;;;;;9.85;8.95;;;;;;;;;;5109067;28;24930;-61
2021/08/29 07:44:01;;;;;;;10.55;9.65;;;;;;;;;;5108880;28;24386;-61
2021/08/29 07:46:28;;;;;;;9.68;8.77;;;;;;;;;;5119985;27;24448;-61
2021/08/29 07:48:53;;;;;;;10.70;9.80;;;;;;;;;;5129270;27;24416;-60
2021/08/29 07:51:18;;;;;;;11.60;10.60;;;;;;;;;;5116955;27;24449;-61
2021/08/29 07:53:44;;;;;;;11.00;10.00;;;;;;;;;;5108929;28;24848;-60
2021/08/29 07:56:09;;;;;;;11.67;10.57;;;;;;;;;;5112980;27;24412;-61
2021/08/29 07:58:34;;;;;;;10.97;10.00;;;;;;;;;;5126682;27;24985;-61
2021/08/29 08:00:59;;;;;;;9.75;8.85;;;;;;;;;;5108315;28;24414;-60
2021/08/29 08:03:24;;;;;;;9.68;8.77;;;;;;;;;;5108269;28;24418;-61
2021/08/29 08:05:49;;;;;;;12.13;11.13;;;;;;;;;;5107953;28;25017;-60
2021/08/29 08:08:14;;;;;;;11.60;10.60;;;;;;;;;;5108407;28;24404;-60
2021/08/29 08:10:39;;;;;;;12.48;11.38;;;;;;;;;;5128931;27;24512;-61
2021/08/29 08:13:05;;;;;;;10.40;9.50;;;;;;;;;;5128864;27;24759;-61
2021/08/29 08:15:30;;;;;;;11.05;10.05;;;;;;;;;;5122522;27;24401;-61
2021/08/29 08:17:55;;;;;;;9.77;8.97;;;;;;;;;;5108368;28;24413;-61
2021/08/29 08:20:20;;;;;;;10.20;9.30;;;;;;;;;;5119669;27;24447;-60
2021/08/29 08:22:47;;;;;;;12.00;10.93;;;;;;;;;;5112438;27;24517;-61
2021/08/29 08:25:12;;;;;;;13.05;11.85;;;;;;;;;;5107201;28;24410;-61
2021/08/29 08:27:37;;;;;;;9.45;8.65;;;;;;;;;;5109370;27;24493;-60
2021/08/29 08:30:04;;;;;;;10.73;9.83;;;;;;;;;;5128643;27;24385;-61
2021/08/29 08:32:29;;;;;;;10.20;9.40;;;;;;;;;;5128438;27;24417;-61
2021/08/29 08:34:54;;;;;;;11.57;10.57;;;;;;;;;;5128635;27;24428;-60
2021/08/29 08:37:19;;;;;;;10.05;9.25;;;;;;;;;;5128432;28;25202;-60
2021/08/29 08:39:45;;;;;;;11.73;10.73;;;;;;;;;;5114314;28;24969;-60
2021/08/29 08:42:10;;;;;;;10.50;9.60;;;;;;;;;;5107923;28;24396;-61
2021/08/29 08:44:35;;;;;;;12.27;11.27;;;;;;;;;;5108060;28;24935;-61
2021/08/29 08:47:04;;;;;;;9.60;8.90;;;;;;;;;;5108139;28;24517;-61
2021/08/29 08:49:31;;;;;;;10.80;9.90;;;;;;;;;;5107753;28;24420;-61
2021/08/29 08:51:58;;;;;;;10.02;9.23;;;;;;;;;;5121911;28;24508;-61
2021/08/29 08:54:23;;;;;;;10.80;9.90;;;;;;;;;;5122527;28;24423;-62
2021/08/29 08:56:51;;;;;;;10.60;9.70;;;;;;;;;;5108044;28;25256;-62
2021/08/29 08:59:16;;;;;;;10.20;9.30;;;;;;;;;;5107780;28;24421;-62
2021/08/29 09:01:41;;;;;;;9.80;9.00;;;;;;;;;;5107930;28;24436;-63
2021/08/29 09:04:06;;;;;;;10.23;9.43;;;;;;;;;;5108605;28;24885;-61
2021/08/29 09:06:35;;;;;;;10.87;9.97;;;;;;;;;;5107724;28;25024;-61
2021/08/29 09:09:03;;;;;;;10.45;9.65;;;;;;;;;;5107758;28;24908;-62
2021/08/29 09:11:28;;;;;;;10.00;9.20;;;;;;;;;;5107571;28;24401;-62
2021/08/29 09:13:54;;;;;;;10.40;9.60;;;;;;;;;;5103854;28;24475;-63
2021/08/29 09:16:21;;;;;;;10.20;9.40;;;;;;;;;;5096882;28;24516;-62
2021/08/29 09:18:50;;;;;;;11.10;10.20;;;;;;;;;;5107407;28;24397;-62
2021/08/29 09:21:22;;;;;;;9.18;8.48;;;;;;;;;;5107668;28;24410;-62
2021/08/29 09:23:47;;;;;;;9.70;9.00;;;;;;;;;;5107756;28;24446;-62
2021/08/29 09:26:13;;;;;;;10.60;9.70;;;;;;;;;;5107753;28;24748;-63
2021/08/29 09:28:38;;;;;;;10.25;9.50;;;;;;;;;;5108545;28;24425;-62
2021/08/29 09:31:04;;;;;;;9.85;9.10;;;;;;;;;;5111988;28;24413;-62
2021/08/29 09:33:29;;;;;;;8.30;7.70;;;;;;;;;;5107402;28;24438;-63
2021/08/29 09:35:55;;;;;;;7.63;7.03;;;;;;;;;;5109639;28;24407;-61
2021/08/29 09:38:20;;;;;;;8.20;7.60;;;;;;;;;;5111230;28;24397;-61
2021/08/29 09:40:45;;;;;;;9.13;8.43;;;;;;;;;;5115984;27;24493;-61
2021/08/29 09:43:10;;;;;;;8.40;7.80;;;;;;;;;;5131688;27;24400;-61
2021/08/29 09:45:37;;;;;;;10.87;9.77;;;;;;;;;;5120558;27;24443;-61
2021/08/29 09:48:04;;;;;;;9.43;8.63;;;;;;;;;;5111172;28;24484;-61
2021/08/29 09:50:30;;;;;;;10.20;9.30;;;;;;;;;;5092176;28;24813;-61
2021/08/29 09:53:03;;;;;;;9.10;8.40;;;;;;;;;;5096723;27;24417;-61
2021/08/29 09:55:29;;;;;;;8.80;8.00;;;;;;;;;;5130963;27;24424;-61
2021/08/29 09:57:54;;;;;;;7.37;6.87;;;;;;;;;;5131353;27;24795;-61
2021/08/29 10:00:20;;;;;;;7.97;7.37;;;;;;;;;;5131474;27;24407;-61
2021/08/29 10:02:45;;;;;;;7.47;6.90;;;;;;;;;;5125168;27;25018;-61
2021/08/29 10:05:17;;;;;;;7.13;6.53;;;;;;;;;;5111761;27;24506;-61
2021/08/29 10:08:04;;;;;;;7.38;6.78;;;;;;;;;;5131474;27;24389;-61
2021/08/29 10:10:29;;;;;;;7.25;6.72;;;;;;;;;;5119282;27;24560;-60
2021/08/29 10:12:55;;;;;;;9.03;8.33;;;;;;;;;;5108113;28;24505;-61
2021/08/29 10:15:20;;;;;;;8.10;7.50;;;;;;;;;;5108726;28;24433;-60
2021/08/29 10:17:46;;;;;;;8.17;7.50;;;;;;;;;;5110425;27;24482;-60
2021/08/29 10:20:16;;;;;;;7.50;6.90;;;;;;;;;;5108551;28;24817;-60
2021/08/29 10:22:41;;;;;;;7.50;7.00;;;;;;;;;;5100778;28;24794;-61
2021/08/29 10:25:08;;;;;;;8.47;7.87;;;;;;;;;;5109210;28;24487;-62
2021/08/29 10:27:37;;;;;;;7.90;7.30;;;;;;;;;;5108279;28;24525;-61
2021/08/29 10:30:02;;;;;;;8.63;7.97;;;;;;;;;;5107314;27;24424;-61
2021/08/29 10:32:33;;;;;;;8.77;8.00;;;;;;;;;;5113197;27;24916;-61
2021/08/29 10:34:59;;;;;;;6.97;6.47;;;;;;;;;;5108009;27;24433;-61
2021/08/29 10:37:24;;;;;;;8.30;7.70;;;;;;;;;;5107845;28;24498;-62
2021/08/29 10:39:50;;;;;;;7.37;6.77;;;;;;;;;;5108961;28;24496;-61
2021/08/29 10:42:15;;;;;;;7.43;6.93;;;;;;;;;;5109420;27;24760;-62
2021/08/29 10:44:41;;;;;;;7.00;6.50;;;;;;;;;;5108514;28;24486;-62
2021/08/29 10:47:06;;;;;;;7.00;6.50;;;;;;;;;;5107368;28;24540;-62
2021/08/29 10:49:32;;;;;;;7.40;6.80;;;;;;;;;;5108658;28;24495;-62
2021/08/29 10:51:58;;;;;;;7.43;6.93;;;;;;;;;;5109944;27;24982;-62
2021/08/29 10:54:24;;;;;;;8.40;7.70;;;;;;;;;;5108957;28;25092;-62
2021/08/29 10:56:49;;;;;;;8.25;7.65;;;;;;;;;;5116345;27;26415;-62
2021/08/29 10:59:19;;;;;;;7.43;6.93;;;;;;;;;;5109138;28;24417;-65
2021/08/29 11:01:48;;;;;;;7.40;6.80;;;;;;;;;;5109047;27;24431;-60
2021/08/29 11:04:22;;;;;;;6.80;6.30;;;;;;;;;;5108059;28;24428;-61
2021/08/29 11:06:47;;;;;;;6.80;6.30;;;;;;;;;;5108145;28;24535;-60
2021/08/29 11:09:31;;;;;;;6.63;6.13;;;;;;;;;;5107536;28;24402;-61
2021/08/29 11:11:56;;;;;;;6.15;5.68;;;;;;;;;;5108717;28;24456;-61
2021/08/29 11:14:37;;;;;;;6.50;6.00;;;;;;;;;;5108818;27;24939;-61
2021/08/29 11:17:09;;;;;;;5.60;5.20;;;;;;;;;;5109158;27;24471;-61
2021/08/29 11:19:38;;;;;;;6.15;5.75;;;;;;;;;;5108327;27;24418;-62
2021/08/29 11:22:03;;;;;;;5.55;5.15;;;;;;;;;;5109060;28;24406;-62
2021/08/29 11:24:49;;;;;;;6.78;6.28;;;;;;;;;;5108404;28;24779;-62
2021/08/29 11:27:44;;;;;;;6.47;5.97;;;;;;;;;;5109309;28;24406;-62
2021/08/29 11:30:10;;;;;;;6.05;5.60;;;;;;;;;;5107610;28;24882;-63
2021/08/29 11:32:38;;;;;;;5.82;5.32;;;;;;;;;;5109035;28;24962;-62
2021/08/29 11:35:17;;;;;;;7.63;7.03;;;;;;;;;;5107247;28;24486;-61
2021/08/29 11:37:58;;;;;;;6.80;6.30;;;;;;;;;;5108898;28;24401;-62
2021/08/29 11:40:23;;;;;;;6.60;6.10;;;;;;;;;;5102593;27;24424;-61
2021/08/29 11:43:08;;;;;;;8.00;7.40;;;;;;;;;;5107699;28;24402;-62
2021/08/29 11:45:34;;;;;;;6.28;5.88;;;;;;;;;;5107618;28;24524;-62
2021/08/29 11:47:59;;;;;;;6.70;6.20;;;;;;;;;;5108303;28;24858;-62
2021/08/29 11:50:27;;;;;;;5.40;5.00;;;;;;;;;;5107895;28;25164;-62
2021/08/29 11:52:57;;;;;;;6.50;6.00;;;;;;;;;;5109755;27;24432;-61
2021/08/29 11:55:22;;;;;;;6.70;6.10;;;;;;;;;;5112128;27;24425;-62
2021/08/29 11:57:48;;;;;;;6.90;6.40;;;;;;;;;;5107066;28;24417;-61
2021/08/29 12:00:14;;;;;;;6.40;5.90;;;;;;;;;;5099928;28;24454;-61
2021/08/29 12:02:42;;;;;;;5.97;5.47;;;;;;;;;;5107244;28;24841;-62
2021/08/29 12:05:08;;;;;;;5.53;5.13;;;;;;;;;;5106763;28;24761;-61
2021/08/29 12:07:36;;;;;;;5.20;4.80;;;;;;;;;;5107103;28;24437;-61
2021/08/29 12:10:01;;;;;;;4.70;4.40;;;;;;;;;;5105102;28;24462;-61
2021/08/29 12:12:27;;;;;;;4.70;4.40;;;;;;;;;;5105010;28;24426;-61
2021/08/29 12:14:52;;;;;;;4.90;4.50;;;;;;;;;;5108810;27;24449;-61
2021/08/29 12:17:18;;;;;;;5.45;5.05;;;;;;;;;;5104329;27;24637;-61
2021/08/29 12:19:44;;;;;;;5.57;5.07;;;;;;;;;;5109548;28;25064;-61
2021/08/29 12:22:10;;;;;;;6.00;5.50;;;;;;;;;;5107849;28;24432;-62
2021/08/29 12:24:36;;;;;;;5.68;5.28;;;;;;;;;;5119424;27;24954;-62
2021/08/29 12:27:04;;;;;;;5.45;5.05;;;;;;;;;;5119535;27;24977;-62
2021/08/29 12:29:29;;;;;;;5.47;5.07;;;;;;;;;;5107798;28;25008;-60
2021/08/29 12:32:04;;;;;;;4.22;3.92;;;;;;;;;;5107947;28;24417;-61
2021/08/29 12:34:29;;;;;;;5.00;4.70;;;;;;;;;;5111910;27;24864;-60
2021/08/29 12:37:02;;;;;;;4.80;4.50;;;;;;;;;;5123682;27;24522;-61
2021/08/29 12:39:27;;;;;;;5.03;4.72;;;;;;;;;;5107583;28;24421;-61
2021/08/29 12:41:52;;;;;;;4.68;4.38;;;;;;;;;;5107865;28;24479;-60
2021/08/29 12:44:17;;;;;;;4.55;4.25;;;;;;;;;;5107346;28;24428;-61
2021/08/29 12:46:43;;;;;;;4.30;4.00;;;;;;;;;;5112962;27;24493;-61
2021/08/29 12:49:08;;;;;;;4.57;4.28;;;;;;;;;;5107511;28;24969;-61
2021/08/29 12:51:33;;;;;;;4.83;4.53;;;;;;;;;;5107393;28;24513;-60
2021/08/29 12:54:00;;;;;;;4.35;4.05;;;;;;;;;;5107460;28;24425;-61
2021/08/29 12:56:25;;;;;;;4.78;4.47;;;;;;;;;;5108508;28;24412;-61
2021/08/29 12:58:50;;;;;;;4.40;4.10;;;;;;;;;;5107850;28;24390;-61
2021/08/29 13:01:17;;;;;;;3.70;3.50;;;;;;;;;;5107006;28;24402;-61
2021/08/29 13:03:51;;;;;;;4.10;3.80;;;;;;;;;;5107392;28;24470;-61
2021/08/29 13:06:18;;;;;;;4.28;4.03;;;;;;;;;;5107326;28;24959;-62
2021/08/29 13:08:47;;;;;;;4.67;4.37;;;;;;;;;;5100927;28;24429;-61
2021/08/29 13:11:14;;;;;;;4.85;4.55;;;;;;;;;;5110640;28;24509;-62
2021/08/29 13:13:40;;;;;;;5.25;4.95;;;;;;;;;;5111283;28;24989;-60
2021/08/29 13:16:06;;;;;;;4.90;4.60;;;;;;;;;;5111371;28;24410;-61
2021/08/29 13:18:32;;;;;;;5.10;4.70;;;;;;;;;;5111183;28;24494;-60
2021/08/29 13:20:57;;;;;;;5.93;5.53;;;;;;;;;;5120473;27;24535;-61
2021/08/29 13:23:25;;;;;;;4.97;4.57;;;;;;;;;;5126988;27;24486;-61
2021/08/29 13:25:51;;;;;;;4.45;4.15;;;;;;;;;;5119160;27;24417;-60
2021/08/29 13:28:16;;;;;;;5.53;5.13;;;;;;;;;;5105516;28;24430;-60
2021/08/29 13:30:42;;;;;;;5.00;4.60;;;;;;;;;;5105598;27;25085;-60
2021/08/29 13:33:14;;;;;;;5.37;4.97;;;;;;;;;;5112795;27;24648;-60
2021/08/29 13:35:39;;;;;;;5.35;4.95;;;;;;;;;;5122165;27;24794;-60
2021/08/29 13:38:04;;;;;;;4.40;4.00;;;;;;;;;;5119409;27;24432;-60
2021/08/29 13:40:31;;;;;;;4.30;4.00;;;;;;;;;;5110700;28;24984;-60
2021/08/29 13:43:00;;;;;;;4.20;3.90;;;;;;;;;;5113081;27;24454;-61
2021/08/29 13:45:33;;;;;;;3.50;3.30;;;;;;;;;;5113516;27;24786;-60
2021/08/29 13:47:59;;;;;;;3.90;3.60;;;;;;;;;;5093885;27;24421;-60
2021/08/29 13:50:26;;;;;;;3.50;3.30;;;;;;;;;;5125914;27;24437;-61
2021/08/29 13:53:03;;;;;;;3.20;3.00;;;;;;;;;;5110792;27;24954;-64
2021/08/29 13:55:29;;;;;;;3.20;3.00;;;;;;;;;;5110600;28;24426;-63
2021/08/29 13:57:54;;;;;;;3.30;3.10;;;;;;;;;;5113102;27;24405;-61
2021/08/29 14:00:20;;;;;;;3.00;2.80;;;;;;;;;;5110159;28;24413;-60
2021/08/29 14:02:45;;;;;;;3.40;3.20;;;;;;;;;;5109824;28;24406;-60
2021/08/29 14:05:10;;;;;;;2.90;2.70;;;;;;;;;;5111057;27;24409;-60
2021/08/29 14:07:36;;;;;;;2.90;2.70;;;;;;;;;;5110616;28;24421;-61
2021/08/29 14:10:01;;;;;;;2.87;2.70;;;;;;;;;;5110855;28;24496;-61
2021/08/29 14:12:26;;;;;;;2.80;2.70;;;;;;;;;;5110846;28;24725;-61
2021/08/29 14:14:51;;;;;;;2.30;2.20;;;;;;;;;;5110696;28;24457;-61
2021/08/29 14:17:16;;;;;;;2.80;2.50;;;;;;;;;;5125176;27;24891;-61
2021/08/29 14:19:41;;;;;;;2.55;2.45;;;;;;;;;;5125285;27;24410;-61
2021/08/29 14:22:06;;;;;;;3.00;2.80;;;;;;;;;;5110436;28;24533;-61
2021/08/29 14:24:36;;;;;;;2.67;2.47;;;;;;;;;;5110472;28;24934;-62
2021/08/29 14:27:01;;;;;;;2.50;2.40;;;;;;;;;;5110331;28;24432;-60
2021/08/29 14:29:26;;;;;;;2.20;2.10;;;;;;;;;;5126703;27;24449;-61
2021/08/29 14:31:51;;;;;;;2.60;2.40;;;;;;;;;;5130478;27;24937;-61
2021/08/29 14:34:16;;;;;;;2.83;2.63;;;;;;;;;;5126998;27;24417;-61
2021/08/29 14:36:41;;;;;;;2.63;2.42;;;;;;;;;;5109946;28;24443;-61